sensor_id;sensor_type;location;lat;lon;timestamp;P1;durP1;ratioP1;P2;durP2;ratioP2
63975;SDS011;50167;47.958;21.780;2023-02-01T00:00:24;19.37;;;5.80;;
63975;SDS011;50167;47.958;21.780;2023-02-01T00:02:50;12.93;;;5.60;;
63975;SDS011;50167;47.958;21.780;2023-02-01T00:05:17;14.00;;;5.13;;
63975;SDS011;50167;47.958;21.780;2023-02-01T00:07:46;12.53;;;4.70;;
63975;SDS011;50167;47.958;21.780;2023-02-01T00:10:14;11.10;;;5.60;;
63975;SDS011;50167;47.958;21.780;2023-02-01T00:12:40;11.03;;;5.07;;
63975;SDS011;50167;47.958;21.780;2023-02-01T00:15:07;12.63;;;4.97;;
63975;SDS011;50167;47.958;21.780;2023-02-01T00:17:34;16.77;;;4.90;;
63975;SDS011;50167;47.958;21.780;2023-02-01T00:20:00;10.43;;;5.17;;
63975;SDS011;50167;47.958;21.780;2023-02-01T00:22:27;9.97;;;4.07;;
63975;SDS011;50167;47.958;21.780;2023-02-01T00:24:53;21.03;;;6.70;;
63975;SDS011;50167;47.958;21.780;2023-02-01T00:27:19;19.27;;;4.87;;
63975;SDS011;50167;47.958;21.780;2023-02-01T00:29:46;15.53;;;6.27;;
63975;SDS011;50167;47.958;21.780;2023-02-01T00:32:13;14.63;;;4.70;;
63975;SDS011;50167;47.958;21.780;2023-02-01T00:34:39;12.37;;;5.07;;
63975;SDS011;50167;47.958;21.780;2023-02-01T00:37:06;12.93;;;5.00;;
63975;SDS011;50167;47.958;21.780;2023-02-01T00:39:32;13.90;;;4.07;;
63975;SDS011;50167;47.958;21.780;2023-02-01T00:41:59;11.20;;;4.93;;
63975;SDS011;50167;47.958;21.780;2023-02-01T00:44:27;10.77;;;5.17;;
63975;SDS011;50167;47.958;21.780;2023-02-01T00:46:55;9.03;;;4.83;;
63975;SDS011;50167;47.958;21.780;2023-02-01T00:49:21;12.10;;;4.80;;
63975;SDS011;50167;47.958;21.780;2023-02-01T00:51:47;13.27;;;5.53;;
63975;SDS011;50167;47.958;21.780;2023-02-01T00:54:14;13.23;;;5.13;;
63975;SDS011;50167;47.958;21.780;2023-02-01T00:56:40;13.73;;;5.67;;
63975;SDS011;50167;47.958;21.780;2023-02-01T00:59:07;18.17;;;6.93;;
63975;SDS011;50167;47.958;21.780;2023-02-01T01:04:03;20.80;;;6.17;;
63975;SDS011;50167;47.958;21.780;2023-02-01T01:06:30;15.87;;;5.80;;
63975;SDS011;50167;47.958;21.780;2023-02-01T01:09:00;18.57;;;6.90;;
63975;SDS011;50167;47.958;21.780;2023-02-01T01:11:30;21.17;;;7.30;;
63975;SDS011;50167;47.958;21.780;2023-02-01T01:14:00;22.40;;;7.55;;
63975;SDS011;50167;47.958;21.780;2023-02-01T01:16:27;15.87;;;6.07;;
63975;SDS011;50167;47.958;21.780;2023-02-01T01:18:55;13.60;;;4.13;;
63975;SDS011;50167;47.958;21.780;2023-02-01T01:21:22;12.47;;;4.70;;
63975;SDS011;50167;47.958;21.780;2023-02-01T01:23:48;16.30;;;7.83;;
63975;SDS011;50167;47.958;21.780;2023-02-01T01:26:19;15.67;;;5.83;;
63975;SDS011;50167;47.958;21.780;2023-02-01T01:28:45;12.00;;;4.50;;
63975;SDS011;50167;47.958;21.780;2023-02-01T01:31:13;15.33;;;5.57;;
63975;SDS011;50167;47.958;21.780;2023-02-01T01:33:41;26.10;;;6.33;;
63975;SDS011;50167;47.958;21.780;2023-02-01T01:36:09;13.63;;;3.77;;
63975;SDS011;50167;47.958;21.780;2023-02-01T01:38:36;12.80;;;5.20;;
63975;SDS011;50167;47.958;21.780;2023-02-01T01:41:04;11.27;;;4.00;;
63975;SDS011;50167;47.958;21.780;2023-02-01T01:43:46;11.70;;;5.70;;
63975;SDS011;50167;47.958;21.780;2023-02-01T01:51:49;15.43;;;6.30;;
63975;SDS011;50167;47.958;21.780;2023-02-01T01:57:03;11.03;;;5.23;;
63975;SDS011;50167;47.958;21.780;2023-02-01T01:59:35;14.17;;;6.37;;
63975;SDS011;50167;47.958;21.780;2023-02-01T02:02:05;18.77;;;6.93;;
63975;SDS011;50167;47.958;21.780;2023-02-01T02:04:32;12.60;;;4.17;;
63975;SDS011;50167;47.958;21.780;2023-02-01T02:07:00;9.30;;;3.97;;
63975;SDS011;50167;47.958;21.780;2023-02-01T02:09:33;12.23;;;3.40;;
63975;SDS011;50167;47.958;21.780;2023-02-01T02:12:00;9.13;;;4.03;;
63975;SDS011;50167;47.958;21.780;2023-02-01T02:14:27;13.93;;;5.77;;
63975;SDS011;50167;47.958;21.780;2023-02-01T02:17:05;14.03;;;4.07;;
63975;SDS011;50167;47.958;21.780;2023-02-01T02:26:11;11.63;;;4.40;;
63975;SDS011;50167;47.958;21.780;2023-02-01T02:39:59;16.87;;;5.53;;
63975;SDS011;50167;47.958;21.780;2023-02-01T02:45:42;11.07;;;4.23;;
63975;SDS011;50167;47.958;21.780;2023-02-01T02:48:36;15.87;;;4.47;;
63975;SDS011;50167;47.958;21.780;2023-02-01T02:51:14;15.27;;;5.00;;
63975;SDS011;50167;47.958;21.780;2023-02-01T02:54:25;12.23;;;4.13;;
63975;SDS011;50167;47.958;21.780;2023-02-01T02:57:10;9.10;;;3.93;;
63975;SDS011;50167;47.958;21.780;2023-02-01T03:00:09;7.90;;;4.00;;
63975;SDS011;50167;47.958;21.780;2023-02-01T03:02:58;11.10;;;4.87;;
63975;SDS011;50167;47.958;21.780;2023-02-01T03:05:46;14.80;;;4.57;;
63975;SDS011;50167;47.958;21.780;2023-02-01T03:08:18;16.47;;;5.00;;
63975;SDS011;50167;47.958;21.780;2023-02-01T03:10:48;7.97;;;4.03;;
63975;SDS011;50167;47.958;21.780;2023-02-01T03:14:10;14.70;;;4.67;;
63975;SDS011;50167;47.958;21.780;2023-02-01T03:16:34;6.50;;;4.40;;
63975;SDS011;50167;47.958;21.780;2023-02-01T03:19:11;12.20;;;4.63;;
63975;SDS011;50167;47.958;21.780;2023-02-01T03:21:59;17.23;;;4.83;;
63975;SDS011;50167;47.958;21.780;2023-02-01T03:24:41;12.93;;;4.43;;
63975;SDS011;50167;47.958;21.780;2023-02-01T03:29:43;16.17;;;6.23;;
63975;SDS011;50167;47.958;21.780;2023-02-01T03:32:18;35.13;;;14.77;;
63975;SDS011;50167;47.958;21.780;2023-02-01T03:34:44;27.90;;;10.53;;
63975;SDS011;50167;47.958;21.780;2023-02-01T03:37:12;17.33;;;6.53;;
63975;SDS011;50167;47.958;21.780;2023-02-01T03:39:59;15.00;;;5.58;;
63975;SDS011;50167;47.958;21.780;2023-02-01T03:42:34;18.43;;;5.73;;
63975;SDS011;50167;47.958;21.780;2023-02-01T03:47:47;8.53;;;5.43;;
63975;SDS011;50167;47.958;21.780;2023-02-01T03:50:17;11.65;;;4.55;;
63975;SDS011;50167;47.958;21.780;2023-02-01T03:52:52;21.50;;;7.13;;
63975;SDS011;50167;47.958;21.780;2023-02-01T03:55:23;20.47;;;7.20;;
63975;SDS011;50167;47.958;21.780;2023-02-01T03:57:53;11.63;;;6.47;;
63975;SDS011;50167;47.958;21.780;2023-02-01T04:00:30;14.27;;;7.73;;
63975;SDS011;50167;47.958;21.780;2023-02-01T04:02:56;11.17;;;6.03;;
63975;SDS011;50167;47.958;21.780;2023-02-01T04:05:24;10.47;;;6.17;;
63975;SDS011;50167;47.958;21.780;2023-02-01T04:07:50;13.70;;;5.70;;
63975;SDS011;50167;47.958;21.780;2023-02-01T04:10:16;16.40;;;5.57;;
63975;SDS011;50167;47.958;21.780;2023-02-01T04:12:43;10.97;;;5.33;;
63975;SDS011;50167;47.958;21.780;2023-02-01T04:15:09;18.80;;;5.27;;
63975;SDS011;50167;47.958;21.780;2023-02-01T04:17:36;10.10;;;4.93;;
63975;SDS011;50167;47.958;21.780;2023-02-01T04:20:02;18.27;;;5.90;;
63975;SDS011;50167;47.958;21.780;2023-02-01T04:22:30;12.07;;;5.37;;
63975;SDS011;50167;47.958;21.780;2023-02-01T04:24:56;7.17;;;4.47;;
63975;SDS011;50167;47.958;21.780;2023-02-01T04:27:22;14.73;;;6.53;;
63975;SDS011;50167;47.958;21.780;2023-02-01T04:29:49;9.90;;;4.50;;
63975;SDS011;50167;47.958;21.780;2023-02-01T04:32:15;16.77;;;6.03;;
63975;SDS011;50167;47.958;21.780;2023-02-01T04:34:42;10.00;;;5.33;;
63975;SDS011;50167;47.958;21.780;2023-02-01T04:37:08;14.90;;;6.57;;
63975;SDS011;50167;47.958;21.780;2023-02-01T04:39:35;16.10;;;7.00;;
63975;SDS011;50167;47.958;21.780;2023-02-01T04:42:01;17.77;;;7.33;;
63975;SDS011;50167;47.958;21.780;2023-02-01T04:44:27;23.60;;;10.23;;
63975;SDS011;50167;47.958;21.780;2023-02-01T04:46:53;21.07;;;8.47;;
63975;SDS011;50167;47.958;21.780;2023-02-01T04:49:20;16.27;;;7.73;;
63975;SDS011;50167;47.958;21.780;2023-02-01T04:51:50;15.98;;;6.70;;
63975;SDS011;50167;47.958;21.780;2023-02-01T04:54:17;12.87;;;6.17;;
63975;SDS011;50167;47.958;21.780;2023-02-01T04:56:43;16.37;;;6.83;;
63975;SDS011;50167;47.958;21.780;2023-02-01T04:59:10;12.20;;;6.70;;
63975;SDS011;50167;47.958;21.780;2023-02-01T05:01:37;14.93;;;6.77;;
63975;SDS011;50167;47.958;21.780;2023-02-01T05:04:04;17.40;;;6.43;;
63975;SDS011;50167;47.958;21.780;2023-02-01T05:06:30;9.63;;;6.13;;
63975;SDS011;50167;47.958;21.780;2023-02-01T05:08:56;12.83;;;5.40;;
63975;SDS011;50167;47.958;21.780;2023-02-01T05:11:22;10.70;;;5.93;;
63975;SDS011;50167;47.958;21.780;2023-02-01T05:14:07;24.93;;;8.07;;
63975;SDS011;50167;47.958;21.780;2023-02-01T05:16:34;14.40;;;7.60;;
63975;SDS011;50167;47.958;21.780;2023-02-01T05:19:00;18.90;;;8.43;;
63975;SDS011;50167;47.958;21.780;2023-02-01T05:21:27;19.63;;;9.03;;
63975;SDS011;50167;47.958;21.780;2023-02-01T05:23:53;19.57;;;9.67;;
63975;SDS011;50167;47.958;21.780;2023-02-01T05:26:21;12.70;;;6.87;;
63975;SDS011;50167;47.958;21.780;2023-02-01T05:28:48;12.60;;;6.13;;
63975;SDS011;50167;47.958;21.780;2023-02-01T05:31:14;12.80;;;7.07;;
63975;SDS011;50167;47.958;21.780;2023-02-01T05:33:40;13.13;;;6.57;;
63975;SDS011;50167;47.958;21.780;2023-02-01T05:36:07;16.17;;;6.47;;
63975;SDS011;50167;47.958;21.780;2023-02-01T05:38:33;15.93;;;7.03;;
63975;SDS011;50167;47.958;21.780;2023-02-01T05:40:59;19.33;;;9.80;;
63975;SDS011;50167;47.958;21.780;2023-02-01T05:43:25;28.37;;;13.87;;
63975;SDS011;50167;47.958;21.780;2023-02-01T05:45:52;22.83;;;9.83;;
63975;SDS011;50167;47.958;21.780;2023-02-01T05:48:18;19.27;;;9.67;;
63975;SDS011;50167;47.958;21.780;2023-02-01T05:50:45;24.43;;;11.03;;
63975;SDS011;50167;47.958;21.780;2023-02-01T05:53:11;24.97;;;11.43;;
63975;SDS011;50167;47.958;21.780;2023-02-01T05:55:38;19.63;;;9.63;;
63975;SDS011;50167;47.958;21.780;2023-02-01T05:58:05;20.33;;;11.70;;
63975;SDS011;50167;47.958;21.780;2023-02-01T06:00:31;25.67;;;13.00;;
63975;SDS011;50167;47.958;21.780;2023-02-01T06:02:58;24.73;;;10.57;;
63975;SDS011;50167;47.958;21.780;2023-02-01T06:05:24;26.23;;;11.90;;
63975;SDS011;50167;47.958;21.780;2023-02-01T06:07:50;24.37;;;12.67;;
63975;SDS011;50167;47.958;21.780;2023-02-01T06:10:17;30.77;;;13.17;;
63975;SDS011;50167;47.958;21.780;2023-02-01T06:12:45;32.20;;;14.70;;
63975;SDS011;50167;47.958;21.780;2023-02-01T06:15:12;23.47;;;12.53;;
63975;SDS011;50167;47.958;21.780;2023-02-01T06:17:44;24.60;;;13.70;;
63975;SDS011;50167;47.958;21.780;2023-02-01T06:20:12;23.20;;;11.47;;
63975;SDS011;50167;47.958;21.780;2023-02-01T06:22:40;26.57;;;14.83;;
63975;SDS011;50167;47.958;21.780;2023-02-01T06:25:07;38.57;;;20.23;;
63975;SDS011;50167;47.958;21.780;2023-02-01T06:27:36;103.10;;;40.07;;
63975;SDS011;50167;47.958;21.780;2023-02-01T06:30:03;98.93;;;37.30;;
63975;SDS011;50167;47.958;21.780;2023-02-01T06:32:31;77.77;;;34.60;;
63975;SDS011;50167;47.958;21.780;2023-02-01T06:34:57;64.47;;;28.73;;
63975;SDS011;50167;47.958;21.780;2023-02-01T06:37:25;65.53;;;30.13;;
63975;SDS011;50167;47.958;21.780;2023-02-01T06:39:54;58.33;;;28.13;;
63975;SDS011;50167;47.958;21.780;2023-02-01T06:42:20;45.23;;;22.77;;
63975;SDS011;50167;47.958;21.780;2023-02-01T06:44:47;36.97;;;17.33;;
63975;SDS011;50167;47.958;21.780;2023-02-01T06:47:13;21.97;;;12.80;;
63975;SDS011;50167;47.958;21.780;2023-02-01T06:49:39;24.20;;;11.20;;
63975;SDS011;50167;47.958;21.780;2023-02-01T06:52:05;20.67;;;12.13;;
63975;SDS011;50167;47.958;21.780;2023-02-01T06:54:32;26.43;;;13.07;;
63975;SDS011;50167;47.958;21.780;2023-02-01T06:56:59;27.53;;;11.50;;
63975;SDS011;50167;47.958;21.780;2023-02-01T06:59:25;23.97;;;14.70;;
63975;SDS011;50167;47.958;21.780;2023-02-01T07:01:51;27.03;;;15.07;;
63975;SDS011;50167;47.958;21.780;2023-02-01T07:04:17;20.03;;;11.67;;
63975;SDS011;50167;47.958;21.780;2023-02-01T07:06:44;19.90;;;10.63;;
63975;SDS011;50167;47.958;21.780;2023-02-01T07:09:10;22.27;;;10.23;;
63975;SDS011;50167;47.958;21.780;2023-02-01T07:11:37;18.17;;;10.70;;
63975;SDS011;50167;47.958;21.780;2023-02-01T07:14:05;21.20;;;10.57;;
63975;SDS011;50167;47.958;21.780;2023-02-01T07:16:31;20.93;;;12.40;;
63975;SDS011;50167;47.958;21.780;2023-02-01T07:18:57;19.70;;;10.50;;
63975;SDS011;50167;47.958;21.780;2023-02-01T07:21:25;18.07;;;10.43;;
63975;SDS011;50167;47.958;21.780;2023-02-01T07:23:53;21.17;;;12.47;;
63975;SDS011;50167;47.958;21.780;2023-02-01T07:26:20;25.80;;;11.43;;
63975;SDS011;50167;47.958;21.780;2023-02-01T07:28:47;20.63;;;10.77;;
63975;SDS011;50167;47.958;21.780;2023-02-01T07:31:14;26.03;;;15.23;;
63975;SDS011;50167;47.958;21.780;2023-02-01T07:33:47;28.63;;;15.33;;
63975;SDS011;50167;47.958;21.780;2023-02-01T07:36:16;29.37;;;14.77;;
63975;SDS011;50167;47.958;21.780;2023-02-01T07:38:43;24.90;;;12.53;;
63975;SDS011;50167;47.958;21.780;2023-02-01T07:41:12;29.43;;;15.40;;
63975;SDS011;50167;47.958;21.780;2023-02-01T07:43:39;31.67;;;14.87;;
63975;SDS011;50167;47.958;21.780;2023-02-01T07:46:05;29.90;;;13.70;;
63975;SDS011;50167;47.958;21.780;2023-02-01T07:48:33;29.47;;;13.73;;
63975;SDS011;50167;47.958;21.780;2023-02-01T07:51:07;26.00;;;13.60;;
63975;SDS011;50167;47.958;21.780;2023-02-01T07:53:37;40.33;;;18.60;;
63975;SDS011;50167;47.958;21.780;2023-02-01T07:56:07;30.83;;;14.90;;
63975;SDS011;50167;47.958;21.780;2023-02-01T07:58:46;37.83;;;19.40;;
63975;SDS011;50167;47.958;21.780;2023-02-01T08:01:18;32.97;;;13.17;;
63975;SDS011;50167;47.958;21.780;2023-02-01T08:03:48;19.25;;;9.00;;
63975;SDS011;50167;47.958;21.780;2023-02-01T08:06:18;20.25;;;10.10;;
63975;SDS011;50167;47.958;21.780;2023-02-01T08:08:45;21.40;;;11.00;;
63975;SDS011;50167;47.958;21.780;2023-02-01T08:11:14;20.53;;;11.77;;
63975;SDS011;50167;47.958;21.780;2023-02-01T08:13:41;30.30;;;13.50;;
63975;SDS011;50167;47.958;21.780;2023-02-01T08:16:09;28.40;;;13.47;;
63975;SDS011;50167;47.958;21.780;2023-02-01T08:18:37;24.47;;;10.67;;
63975;SDS011;50167;47.958;21.780;2023-02-01T08:21:11;22.03;;;8.47;;
63975;SDS011;50167;47.958;21.780;2023-02-01T08:23:48;15.53;;;7.60;;
63975;SDS011;50167;47.958;21.780;2023-02-01T08:26:16;12.17;;;6.77;;
63975;SDS011;50167;47.958;21.780;2023-02-01T08:28:47;13.08;;;7.42;;
63975;SDS011;50167;47.958;21.780;2023-02-01T08:31:17;23.57;;;10.65;;
63975;SDS011;50167;47.958;21.780;2023-02-01T08:33:50;16.67;;;8.33;;
63975;SDS011;50167;47.958;21.780;2023-02-01T08:36:22;14.93;;;7.20;;
63975;SDS011;50167;47.958;21.780;2023-02-01T08:38:50;17.70;;;9.17;;
63975;SDS011;50167;47.958;21.780;2023-02-01T08:41:17;31.13;;;15.27;;
63975;SDS011;50167;47.958;21.780;2023-02-01T08:43:46;21.53;;;12.13;;
63975;SDS011;50167;47.958;21.780;2023-02-01T08:46:13;21.47;;;8.80;;
63975;SDS011;50167;47.958;21.780;2023-02-01T08:48:40;21.27;;;10.50;;
63975;SDS011;50167;47.958;21.780;2023-02-01T08:51:08;25.87;;;13.20;;
63975;SDS011;50167;47.958;21.780;2023-02-01T08:53:38;22.05;;;11.73;;
63975;SDS011;50167;47.958;21.780;2023-02-01T08:56:09;24.35;;;12.45;;
63975;SDS011;50167;47.958;21.780;2023-02-01T08:58:37;22.30;;;12.53;;
63975;SDS011;50167;47.958;21.780;2023-02-01T09:01:04;25.13;;;12.57;;
63975;SDS011;50167;47.958;21.780;2023-02-01T09:03:33;24.37;;;10.60;;
63975;SDS011;50167;47.958;21.780;2023-02-01T09:06:03;19.50;;;10.23;;
63975;SDS011;50167;47.958;21.780;2023-02-01T09:08:32;21.53;;;10.27;;
63975;SDS011;50167;47.958;21.780;2023-02-01T09:11:00;11.20;;;6.73;;
63975;SDS011;50167;47.958;21.780;2023-02-01T09:13:28;12.00;;;5.83;;
63975;SDS011;50167;47.958;21.780;2023-02-01T09:15:54;9.87;;;4.83;;
63975;SDS011;50167;47.958;21.780;2023-02-01T09:18:20;12.80;;;7.80;;
63975;SDS011;50167;47.958;21.780;2023-02-01T09:20:47;15.33;;;7.23;;
63975;SDS011;50167;47.958;21.780;2023-02-01T09:23:13;10.93;;;3.57;;
63975;SDS011;50167;47.958;21.780;2023-02-01T09:25:39;4.87;;;2.07;;
63975;SDS011;50167;47.958;21.780;2023-02-01T09:28:05;3.17;;;1.93;;
63975;SDS011;50167;47.958;21.780;2023-02-01T09:30:34;2.67;;;1.60;;
63975;SDS011;50167;47.958;21.780;2023-02-01T09:33:02;5.63;;;1.50;;
63975;SDS011;50167;47.958;21.780;2023-02-01T09:35:29;2.70;;;1.80;;
63975;SDS011;50167;47.958;21.780;2023-02-01T09:37:56;2.40;;;2.03;;
63975;SDS011;50167;47.958;21.780;2023-02-01T09:40:22;3.83;;;1.67;;
63975;SDS011;50167;47.958;21.780;2023-02-01T09:48:21;7.23;;;3.50;;
63975;SDS011;50167;47.958;21.780;2023-02-01T09:50:53;12.57;;;6.20;;
63975;SDS011;50167;47.958;21.780;2023-02-01T09:53:43;13.60;;;6.33;;
63975;SDS011;50167;47.958;21.780;2023-02-01T09:56:21;11.13;;;6.57;;
63975;SDS011;50167;47.958;21.780;2023-02-01T10:03:32;12.90;;;6.63;;
63975;SDS011;50167;47.958;21.780;2023-02-01T10:06:07;12.07;;;7.13;;
63975;SDS011;50167;47.958;21.780;2023-02-01T10:26:42;11.67;;;7.23;;
63975;SDS011;50167;47.958;21.780;2023-02-01T10:29:33;7.33;;;4.62;;
63975;SDS011;50167;47.958;21.780;2023-02-01T10:32:08;5.53;;;3.50;;
63975;SDS011;50167;47.958;21.780;2023-02-01T10:34:46;5.80;;;3.80;;
63975;SDS011;50167;47.958;21.780;2023-02-01T10:39:55;7.93;;;3.93;;
63975;SDS011;50167;47.958;21.780;2023-02-01T10:42:25;6.23;;;3.57;;
63975;SDS011;50167;47.958;21.780;2023-02-01T10:44:57;7.47;;;4.50;;
63975;SDS011;50167;47.958;21.780;2023-02-01T10:47:27;8.33;;;4.20;;
63975;SDS011;50167;47.958;21.780;2023-02-01T10:52:42;8.23;;;4.10;;
63975;SDS011;50167;47.958;21.780;2023-02-01T10:55:28;6.97;;;3.50;;
63975;SDS011;50167;47.958;21.780;2023-02-01T10:58:14;7.17;;;4.83;;
63975;SDS011;50167;47.958;21.780;2023-02-01T11:00:48;9.80;;;5.70;;
63975;SDS011;50167;47.958;21.780;2023-02-01T11:06:19;7.37;;;3.97;;
63975;SDS011;50167;47.958;21.780;2023-02-01T11:09:01;9.33;;;5.80;;
63975;SDS011;50167;47.958;21.780;2023-02-01T11:14:20;12.60;;;6.20;;
63975;SDS011;50167;47.958;21.780;2023-02-01T11:17:12;41.70;;;14.90;;
63975;SDS011;50167;47.958;21.780;2023-02-01T11:20:01;18.70;;;7.37;;
63975;SDS011;50167;47.958;21.780;2023-02-01T11:22:34;10.87;;;6.13;;
63975;SDS011;50167;47.958;21.780;2023-02-01T11:25:01;10.80;;;5.50;;
63975;SDS011;50167;47.958;21.780;2023-02-01T11:27:36;10.53;;;4.57;;
63975;SDS011;50167;47.958;21.780;2023-02-01T11:30:04;9.90;;;5.20;;
63975;SDS011;50167;47.958;21.780;2023-02-01T11:32:31;8.53;;;3.63;;
63975;SDS011;50167;47.958;21.780;2023-02-01T11:35:04;12.57;;;5.17;;
63975;SDS011;50167;47.958;21.780;2023-02-01T11:37:37;11.33;;;5.13;;
63975;SDS011;50167;47.958;21.780;2023-02-01T11:40:09;7.00;;;3.63;;
63975;SDS011;50167;47.958;21.780;2023-02-01T11:42:57;7.78;;;4.50;;
63975;SDS011;50167;47.958;21.780;2023-02-01T11:45:29;12.00;;;4.63;;
63975;SDS011;50167;47.958;21.780;2023-02-01T11:48:08;7.87;;;4.23;;
63975;SDS011;50167;47.958;21.780;2023-02-01T11:59:08;5.47;;;3.00;;
63975;SDS011;50167;47.958;21.780;2023-02-01T12:04:53;6.17;;;2.37;;
63975;SDS011;50167;47.958;21.780;2023-02-01T12:07:30;5.13;;;2.40;;
63975;SDS011;50167;47.958;21.780;2023-02-01T12:10:09;8.93;;;3.73;;
63975;SDS011;50167;47.958;21.780;2023-02-01T12:12:52;11.00;;;4.97;;
63975;SDS011;50167;47.958;21.780;2023-02-01T12:15:36;9.87;;;4.60;;
63975;SDS011;50167;47.958;21.780;2023-02-01T12:18:17;11.43;;;3.87;;
63975;SDS011;50167;47.958;21.780;2023-02-01T12:38:41;8.50;;;3.27;;
63975;SDS011;50167;47.958;21.780;2023-02-01T12:41:31;9.63;;;4.90;;
63975;SDS011;50167;47.958;21.780;2023-02-01T12:44:08;8.07;;;3.70;;
63975;SDS011;50167;47.958;21.780;2023-02-01T12:46:44;5.85;;;3.15;;
63975;SDS011;50167;47.958;21.780;2023-02-01T12:49:27;6.37;;;3.07;;
63975;SDS011;50167;47.958;21.780;2023-02-01T12:51:59;9.27;;;3.30;;
63975;SDS011;50167;47.958;21.780;2023-02-01T12:57:26;9.67;;;5.93;;
63975;SDS011;50167;47.958;21.780;2023-02-01T13:05:56;8.10;;;2.72;;
63975;SDS011;50167;47.958;21.780;2023-02-01T13:11:22;5.43;;;2.70;;
63975;SDS011;50167;47.958;21.780;2023-02-01T13:16:37;9.78;;;2.37;;
63975;SDS011;50167;47.958;21.780;2023-02-01T13:19:20;7.90;;;3.63;;
63975;SDS011;50167;47.958;21.780;2023-02-01T13:21:55;9.43;;;3.60;;
63975;SDS011;50167;47.958;21.780;2023-02-01T13:24:31;31.50;;;11.50;;
63975;SDS011;50167;47.958;21.780;2023-02-01T13:27:16;15.27;;;6.00;;
63975;SDS011;50167;47.958;21.780;2023-02-01T13:29:49;4.67;;;3.13;;
63975;SDS011;50167;47.958;21.780;2023-02-01T13:40:59;11.47;;;4.77;;
63975;SDS011;50167;47.958;21.780;2023-02-01T13:44:01;10.97;;;3.53;;
63975;SDS011;50167;47.958;21.780;2023-02-01T13:46:40;9.83;;;3.57;;
63975;SDS011;50167;47.958;21.780;2023-02-01T13:49:18;21.77;;;8.13;;
63975;SDS011;50167;47.958;21.780;2023-02-01T13:51:49;16.10;;;7.03;;
63975;SDS011;50167;47.958;21.780;2023-02-01T13:56:59;28.63;;;14.70;;
63975;SDS011;50167;47.958;21.780;2023-02-01T14:02:37;23.37;;;9.37;;
63975;SDS011;50167;47.958;21.780;2023-02-01T14:05:08;17.40;;;8.28;;
63975;SDS011;50167;47.958;21.780;2023-02-01T14:08:10;10.73;;;4.50;;
63975;SDS011;50167;47.958;21.780;2023-02-01T14:21:20;10.60;;;5.23;;
63975;SDS011;50167;47.958;21.780;2023-02-01T14:24:00;9.43;;;5.27;;
63975;SDS011;50167;47.958;21.780;2023-02-01T14:26:56;12.10;;;5.87;;
63975;SDS011;50167;47.958;21.780;2023-02-01T14:29:35;11.80;;;7.17;;
63975;SDS011;50167;47.958;21.780;2023-02-01T14:32:15;15.80;;;5.77;;
63975;SDS011;50167;47.958;21.780;2023-02-01T14:39:55;15.00;;;6.90;;
63975;SDS011;50167;47.958;21.780;2023-02-01T14:42:38;14.53;;;5.83;;
63975;SDS011;50167;47.958;21.780;2023-02-01T14:47:50;14.77;;;6.90;;
63975;SDS011;50167;47.958;21.780;2023-02-01T15:09:24;8.97;;;3.77;;
63975;SDS011;50167;47.958;21.780;2023-02-01T15:14:47;8.70;;;3.47;;
63975;SDS011;50167;47.958;21.780;2023-02-01T15:17:20;12.10;;;4.30;;
63975;SDS011;50167;47.958;21.780;2023-02-01T15:19:57;11.80;;;5.90;;
63975;SDS011;50167;47.958;21.780;2023-02-01T15:22:42;8.07;;;4.13;;
63975;SDS011;50167;47.958;21.780;2023-02-01T15:25:20;5.83;;;3.10;;
63975;SDS011;50167;47.958;21.780;2023-02-01T15:27:49;8.57;;;3.53;;
63975;SDS011;50167;47.958;21.780;2023-02-01T15:30:22;15.90;;;7.87;;
63975;SDS011;50167;47.958;21.780;2023-02-01T15:32:51;21.93;;;11.53;;
63975;SDS011;50167;47.958;21.780;2023-02-01T15:35:38;14.80;;;7.10;;
63975;SDS011;50167;47.958;21.780;2023-02-01T15:44:01;14.03;;;7.20;;
63975;SDS011;50167;47.958;21.780;2023-02-01T15:46:31;13.67;;;6.77;;
63975;SDS011;50167;47.958;21.780;2023-02-01T15:49:03;10.60;;;5.47;;
63975;SDS011;50167;47.958;21.780;2023-02-01T15:51:32;12.70;;;5.33;;
63975;SDS011;50167;47.958;21.780;2023-02-01T15:56:40;7.40;;;4.57;;
63975;SDS011;50167;47.958;21.780;2023-02-01T15:59:12;8.25;;;3.83;;
63975;SDS011;50167;47.958;21.780;2023-02-01T16:01:43;9.23;;;3.57;;
63975;SDS011;50167;47.958;21.780;2023-02-01T16:04:19;3.83;;;2.20;;
63975;SDS011;50167;47.958;21.780;2023-02-01T16:06:57;10.27;;;4.87;;
63975;SDS011;50167;47.958;21.780;2023-02-01T16:09:35;10.67;;;6.50;;
63975;SDS011;50167;47.958;21.780;2023-02-01T16:12:21;6.57;;;4.00;;
63975;SDS011;50167;47.958;21.780;2023-02-01T16:14:59;6.50;;;4.83;;
63975;SDS011;50167;47.958;21.780;2023-02-01T16:17:25;9.57;;;4.77;;
63975;SDS011;50167;47.958;21.780;2023-02-01T16:19:51;17.40;;;7.67;;
63975;SDS011;50167;47.958;21.780;2023-02-01T16:22:18;10.83;;;5.83;;
63975;SDS011;50167;47.958;21.780;2023-02-01T16:24:44;10.77;;;5.33;;
63975;SDS011;50167;47.958;21.780;2023-02-01T16:27:10;8.93;;;4.00;;
63975;SDS011;50167;47.958;21.780;2023-02-01T16:29:36;7.53;;;3.97;;
63975;SDS011;50167;47.958;21.780;2023-02-01T16:32:03;13.50;;;3.77;;
63975;SDS011;50167;47.958;21.780;2023-02-01T16:34:30;10.47;;;4.47;;
63975;SDS011;50167;47.958;21.780;2023-02-01T16:36:57;8.57;;;4.77;;
63975;SDS011;50167;47.958;21.780;2023-02-01T16:39:23;7.77;;;4.90;;
63975;SDS011;50167;47.958;21.780;2023-02-01T16:41:50;4.37;;;2.67;;
63975;SDS011;50167;47.958;21.780;2023-02-01T16:44:16;9.33;;;4.50;;
63975;SDS011;50167;47.958;21.780;2023-02-01T16:46:43;6.77;;;2.90;;
63975;SDS011;50167;47.958;21.780;2023-02-01T16:49:20;15.47;;;6.83;;
63975;SDS011;50167;47.958;21.780;2023-02-01T16:51:49;12.30;;;7.37;;
63975;SDS011;50167;47.958;21.780;2023-02-01T16:54:20;8.23;;;3.73;;
63975;SDS011;50167;47.958;21.780;2023-02-01T16:56:47;8.27;;;4.17;;
63975;SDS011;50167;47.958;21.780;2023-02-01T16:59:13;8.90;;;5.33;;
63975;SDS011;50167;47.958;21.780;2023-02-01T17:01:40;9.93;;;5.87;;
63975;SDS011;50167;47.958;21.780;2023-02-01T17:04:08;10.83;;;6.90;;
63975;SDS011;50167;47.958;21.780;2023-02-01T17:06:36;9.63;;;5.43;;
63975;SDS011;50167;47.958;21.780;2023-02-01T17:09:04;6.57;;;4.17;;
63975;SDS011;50167;47.958;21.780;2023-02-01T17:11:31;10.87;;;6.17;;
63975;SDS011;50167;47.958;21.780;2023-02-01T17:14:07;10.60;;;5.47;;
63975;SDS011;50167;47.958;21.780;2023-02-01T17:16:44;14.37;;;7.37;;
63975;SDS011;50167;47.958;21.780;2023-02-01T17:19:14;15.83;;;7.73;;
63975;SDS011;50167;47.958;21.780;2023-02-01T17:21:45;10.98;;;6.00;;
63975;SDS011;50167;47.958;21.780;2023-02-01T17:24:20;35.67;;;17.37;;
63975;SDS011;50167;47.958;21.780;2023-02-01T17:26:49;20.62;;;7.53;;
63975;SDS011;50167;47.958;21.780;2023-02-01T17:29:16;20.63;;;8.73;;
63975;SDS011;50167;47.958;21.780;2023-02-01T17:31:43;17.33;;;8.00;;
63975;SDS011;50167;47.958;21.780;2023-02-01T17:34:14;15.10;;;6.92;;
63975;SDS011;50167;47.958;21.780;2023-02-01T17:36:42;22.33;;;11.47;;
63975;SDS011;50167;47.958;21.780;2023-02-01T17:39:09;13.83;;;7.90;;
63975;SDS011;50167;47.958;21.780;2023-02-01T17:41:36;14.23;;;7.17;;
63975;SDS011;50167;47.958;21.780;2023-02-01T17:44:02;16.33;;;7.30;;
63975;SDS011;50167;47.958;21.780;2023-02-01T17:46:30;11.60;;;6.00;;